Aeroporto :
LOGIN :

Iscrizione | Disclaimer

   EN    FR    IT 

 










Sommario :    VFR   VFR Marginale   IFR   IFR Intensivo   IFR Molto Intensivo
Visibilità : 
Base nubi : 
>= 8 km
>= 3000ft
5 / 8 km
1000 / 3000 ft
1500m / 5 km
500 / 1000 ft
800 / 1500m
200 / 500 ft
< 800m
< 200 ft
Simboli :   Temporali  Nebbia  Neve Forte  Precipitazioni Forti  Vento > 20 kt
SIGMETs :   Varie  Temporali  Ghiacco  Turbolenza  Onda orograficha  Ceneri Vulcaniche







- Altitudine del aeroporto : 400 ft
- Codice IATA : BNX


LQBK - Banja Luka

ULTIMO METAR :
  • 160400Z 16003KT CAVOK 18/17 Q1012 NOSIG

METARs OBSOLETI :
  • 160330Z VRB02KT CAVOK 18/17 Q1012 NOSIG
  • 160300Z 15002KT CAVOK 18/17 Q1011 NOSIG
  • 160230Z VRB02KT CAVOK 18/17 Q1011 NOSIG
  • 160200Z VRB02KT CAVOK 18/17 Q1011 NOSIG
  • 160130Z 17002KT CAVOK 18/17 Q1012 NOSIG

TAF TAF LQBK
Valido dal 16 a 00 ore il 17 a 00 ore UTC


152300Z 1600/1624 21005KT CAVOK TX30/1612Z TN13/1624Z
TEMPO 1611/1621 VRB15G25KT 4000 TSRA FEW020 FEW033CB BKN045
PROB30
TEMPO 1614/1618 VRB20G30KT 2000 TSGR FEW020 SCT030CB BKN045
Nessun NOTAM noto per questo aeroporto.



MetMap, La meteo Aeronautica in un colpo d'occhio ! - Copyright ORBIFLY Dicembre 2007 - Disclaimer

ORBIFLY MET'MAP TEAM :

Programmazione e sviluppo : Alexandra Zaïnal
Concezione e sviluppo : Baudouin d'Aumeries
Co-Programmazione e sviluppo : Marc-Olivier Méhu
Supporto tecnico e logistico : Manuel Goepfert
Aiuto per la traduzione : Arnaldo La Scala

Contatto : metmap@orbifly.com




FONTI E CREDITI :

   NOAA